Time;durP1;ratioP1;P1;durP2;ratioP2;P2;SDS_P1;SDS_P2;PMS_P1;PMS_P2;Temp;Humidity;BMP_temperature;BMP_pressure;BME280_temperature;BME280_humidity;BME280_pressure;Samples;Min_cycle;Max_cycle;Signal;HPM_P1;HPM_P2
2021/12/19 00:09:32;;;;;;;22.67;13.07;;;7.20;99.90;;;;;;5048438;28;20073;-61
2021/12/19 00:11:59;;;;;;;17.15;10.57;;;7.30;99.90;;;;;;5046896;28;20119;-61
2021/12/19 00:14:26;;;;;;;34.67;11.93;;;7.30;99.90;;;;;;5046383;28;20419;-61
2021/12/19 00:16:54;;;;;;;15.23;9.80;;;7.40;99.90;;;;;;5047202;28;20080;-61
2021/12/19 00:19:21;;;;;;;16.17;8.90;;;7.30;99.90;;;;;;5046454;28;20454;-61
2021/12/19 00:21:47;;;;;;;21.63;9.45;;;7.30;99.90;;;;;;5048778;28;20064;-61
2021/12/19 00:24:14;;;;;;;15.75;8.38;;;7.30;99.90;;;;;;5050435;28;20753;-61
2021/12/19 00:26:41;;;;;;;21.05;8.82;;;7.30;99.90;;;;;;5051214;28;20044;-61
2021/12/19 00:29:08;;;;;;;18.27;8.93;;;7.20;99.90;;;;;;5052205;28;20162;-61
2021/12/19 00:31:34;;;;;;;21.65;8.68;;;7.20;99.90;;;;;;5052430;28;20119;-61
2021/12/19 00:34:01;;;;;;;46.70;9.55;;;7.20;99.90;;;;;;5052204;28;20077;-60
2021/12/19 00:36:28;;;;;;;33.33;9.48;;;7.20;99.90;;;;;;5050780;28;20041;-61
2021/12/19 00:38:55;;;;;;;29.13;9.52;;;7.20;99.90;;;;;;5050568;28;20597;-61
2021/12/19 00:41:25;;;;;;;30.42;9.85;;;7.10;99.90;;;;;;5050374;28;20456;-62
2021/12/19 00:43:55;;;;;;;27.63;10.90;;;7.20;99.90;;;;;;5051888;28;20080;-61
2021/12/19 00:46:24;;;;;;;62.58;10.52;;;7.20;99.90;;;;;;5050429;28;20052;-61
2021/12/19 00:48:52;;;;;;;52.85;11.07;;;7.20;99.90;;;;;;5051994;28;20115;-61
2021/12/19 00:51:24;;;;;;;36.72;11.52;;;7.10;99.90;;;;;;5051386;28;20451;-61
2021/12/19 00:53:51;;;;;;;53.17;12.27;;;7.20;99.90;;;;;;5030611;28;20493;-61
2021/12/19 00:56:18;;;;;;;80.05;12.75;;;7.20;99.90;;;;;;5045886;28;20049;-61
2021/12/19 00:58:46;;;;;;;77.55;12.75;;;7.20;99.90;;;;;;5051677;28;20132;-61
2021/12/19 01:01:13;;;;;;;31.02;11.55;;;7.10;99.90;;;;;;5051416;28;20056;-60
2021/12/19 01:03:43;;;;;;;61.42;11.45;;;7.10;99.90;;;;;;5050353;28;20087;-61
2021/12/19 01:06:11;;;;;;;46.67;12.02;;;7.10;99.90;;;;;;5050439;28;20094;-61
2021/12/19 01:08:38;;;;;;;28.92;10.73;;;7.10;99.90;;;;;;5052001;28;20041;-60
2021/12/19 01:11:04;;;;;;;61.40;12.45;;;7.10;99.90;;;;;;5051483;28;20084;-60
2021/12/19 01:13:31;;;;;;;42.38;12.25;;;7.00;99.90;;;;;;5052053;28;20053;-60
2021/12/19 01:16:00;;;;;;;78.47;12.88;;;7.00;99.90;;;;;;5051143;28;20693;-61
2021/12/19 01:18:27;;;;;;;66.95;11.88;;;7.10;99.90;;;;;;5049851;28;20091;-61
2021/12/19 01:20:54;;;;;;;83.22;12.13;;;7.00;99.90;;;;;;5049788;28;20106;-60
2021/12/19 01:23:24;;;;;;;121.25;13.85;;;7.00;99.90;;;;;;5050947;28;20719;-61
2021/12/19 01:25:51;;;;;;;101.70;13.07;;;6.90;99.90;;;;;;5049470;28;20705;-60
2021/12/19 01:28:17;;;;;;;44.13;11.68;;;7.00;99.90;;;;;;5050931;28;20102;-61
2021/12/19 01:30:45;;;;;;;111.95;14.38;;;6.90;99.90;;;;;;5050907;28;20095;-61
2021/12/19 01:33:11;;;;;;;93.32;14.23;;;7.00;99.90;;;;;;5049954;28;20048;-61
2021/12/19 01:35:38;;;;;;;43.95;12.82;;;7.00;99.90;;;;;;5050879;28;20511;-61
2021/12/19 01:38:05;;;;;;;135.80;14.48;;;7.00;99.90;;;;;;5050332;28;20469;-61
2021/12/19 01:40:32;;;;;;;66.88;11.38;;;7.00;99.90;;;;;;4715399;28;9999803;-60
2021/12/19 01:42:59;;;;;;;140.45;15.98;;;7.00;99.90;;;;;;5054861;28;20098;-61
2021/12/19 01:45:28;;;;;;;204.07;16.98;;;7.00;99.90;;;;;;5049093;28;20044;-60
2021/12/19 01:47:56;;;;;;;147.80;15.15;;;7.00;99.90;;;;;;5050314;28;20055;-61
2021/12/19 01:50:23;;;;;;;61.17;13.15;;;6.90;99.90;;;;;;5049525;28;20052;-60
2021/12/19 01:52:49;;;;;;;63.83;15.02;;;6.90;99.90;;;;;;5050141;28;20131;-61
2021/12/19 01:55:16;;;;;;;118.35;15.20;;;7.00;99.90;;;;;;5050590;28;20049;-61
2021/12/19 01:57:43;;;;;;;76.57;14.23;;;7.00;99.90;;;;;;5049098;28;20045;-61
2021/12/19 02:00:19;;;;;;;134.43;15.23;;;6.90;99.90;;;;;;5049033;28;20068;-61
2021/12/19 02:02:45;;;;;;;89.32;12.98;;;7.00;99.90;;;;;;5050294;28;20051;-62
2021/12/19 02:05:12;;;;;;;116.20;14.68;;;7.00;99.90;;;;;;5050974;28;20048;-61
2021/12/19 02:07:43;;;;;;;76.93;13.20;;;7.00;99.90;;;;;;5049846;28;20461;-61
2021/12/19 02:10:10;;;;;;;96.32;14.15;;;7.00;99.90;;;;;;5050524;28;20052;-61
2021/12/19 02:12:38;;;;;;;193.55;16.38;;;7.00;99.90;;;;;;5048465;28;20048;-61
2021/12/19 02:15:05;;;;;;;202.27;15.32;;;6.90;99.90;;;;;;5050179;28;20199;-61
2021/12/19 02:17:32;;;;;;;96.85;13.60;;;7.00;99.90;;;;;;5049747;28;20095;-61
2021/12/19 02:19:59;;;;;;;62.80;12.10;;;6.90;99.90;;;;;;5046215;28;20088;-61
2021/12/19 02:22:25;;;;;;;90.43;13.48;;;6.90;99.90;;;;;;5050132;28;20451;-61
2021/12/19 02:24:54;;;;;;;99.43;13.45;;;7.00;99.90;;;;;;5049486;28;20041;-61
2021/12/19 02:27:26;;;;;;;111.13;12.75;;;6.90;99.90;;;;;;5050160;28;20092;-61
2021/12/19 02:29:53;;;;;;;140.18;11.98;;;7.00;99.90;;;;;;5049313;28;20049;-61
2021/12/19 02:32:20;;;;;;;61.80;10.15;;;6.90;99.90;;;;;;5049899;28;20098;-61
2021/12/19 02:34:49;;;;;;;103.00;10.93;;;6.90;99.90;;;;;;5048006;28;20177;-61
2021/12/19 02:48:13;;;;;;;39.75;7.15;;;6.70;99.90;;;;;;5029449;28;20103;-60
2021/12/19 02:50:46;;;;;;;33.60;7.07;;;6.80;99.90;;;;;;5048724;28;20060;-60
2021/12/19 02:53:13;;;;;;;32.50;6.05;;;6.60;99.90;;;;;;5048111;28;20463;-60
2021/12/19 02:55:40;;;;;;;41.65;6.00;;;6.60;99.90;;;;;;5048830;28;20087;-61
2021/12/19 02:58:06;;;;;;;45.03;6.45;;;6.50;99.90;;;;;;5049332;28;20080;-61
2021/12/19 03:00:33;;;;;;;37.33;6.00;;;6.50;99.90;;;;;;5048668;28;20048;-61
2021/12/19 03:03:00;;;;;;;83.32;7.03;;;6.50;99.90;;;;;;5049504;28;20045;-61
2021/12/19 03:05:30;;;;;;;43.53;5.80;;;6.40;99.90;;;;;;5047573;28;20737;-61
2021/12/19 03:07:58;;;;;;;27.50;6.32;;;6.40;99.90;;;;;;5047969;28;20045;-60
2021/12/19 03:18:39;;;;;;;39.00;6.80;;;6.70;99.90;;;;;;5048752;28;20463;-60
2021/12/19 03:21:10;;;;;;;28.33;6.30;;;6.60;99.90;;;;;;5047288;28;20080;-61
2021/12/19 03:23:37;;;;;;;52.25;6.32;;;6.60;99.90;;;;;;5047554;28;20053;-61
2021/12/19 03:26:04;;;;;;;31.20;5.47;;;6.60;99.90;;;;;;5048354;28;20067;-61
2021/12/19 03:28:31;;;;;;;37.70;6.20;;;6.60;99.90;;;;;;5048758;28;20088;-60
2021/12/19 03:30:57;;;;;;;35.28;5.18;;;6.60;99.90;;;;;;5048398;28;20453;-60
2021/12/19 03:33:24;;;;;;;25.83;5.85;;;6.60;99.90;;;;;;5048653;28;20071;-60
2021/12/19 03:35:51;;;;;;;49.75;6.50;;;6.50;99.90;;;;;;5047138;28;20053;-60
2021/12/19 03:38:18;;;;;;;17.95;5.60;;;6.50;99.90;;;;;;5048583;28;20048;-60
2021/12/19 03:40:52;;;;;;;41.53;6.20;;;6.60;99.90;;;;;;5030778;28;20519;-60
2021/12/19 03:43:19;;;;;;;;;;;6.60;99.90;;;;;;5049147;28;20053;-60
2021/12/19 03:45:46;;;;;;;48.00;5.82;;;6.60;99.90;;;;;;5048163;28;19920;-60
2021/12/19 03:48:15;;;;;;;18.08;6.00;;;6.60;99.90;;;;;;5048600;28;20048;-61
2021/12/19 03:50:47;;;;;;;47.85;6.15;;;6.60;99.90;;;;;;5046865;28;20126;-60
2021/12/19 03:53:16;;;;;;;38.85;5.80;;;6.70;99.90;;;;;;5048660;28;20301;-60
2021/12/19 03:55:43;;;;;;;27.77;5.45;;;6.60;99.90;;;;;;5046605;28;20044;-60
2021/12/19 03:58:10;;;;;;;72.70;7.43;;;6.60;99.90;;;;;;5048476;28;20040;-61
2021/12/19 04:00:37;;;;;;;41.60;5.93;;;6.70;99.90;;;;;;5048063;28;20095;-61
2021/12/19 04:03:07;;;;;;;63.97;6.55;;;6.60;99.90;;;;;;5026115;28;20104;-60
2021/12/19 04:05:34;;;;;;;30.65;6.80;;;6.60;99.90;;;;;;5043765;28;20065;-60
2021/12/19 04:08:01;;;;;;;48.75;8.13;;;6.60;99.90;;;;;;5045697;28;20049;-60
2021/12/19 04:10:28;;;;;;;32.78;6.25;;;6.70;99.90;;;;;;5048975;28;20095;-60
2021/12/19 04:12:55;;;;;;;64.68;8.35;;;6.70;99.90;;;;;;5047030;28;20048;-60
2021/12/19 04:15:22;;;;;;;17.30;6.18;;;6.60;99.90;;;;;;5047281;28;20092;-61
2021/12/19 04:17:49;;;;;;;38.03;6.60;;;6.60;99.90;;;;;;5048120;28;20048;-61
2021/12/19 04:20:18;;;;;;;33.35;5.75;;;6.60;99.90;;;;;;5048634;28;20075;-61
2021/12/19 04:22:49;;;;;;;100.50;6.80;;;6.60;99.90;;;;;;5048149;28;20045;-61
2021/12/19 04:25:15;;;;;;;108.30;7.20;;;6.70;99.90;;;;;;5048762;28;20076;-60
2021/12/19 04:27:42;;;;;;;17.35;5.60;;;6.60;99.90;;;;;;5046867;28;20541;-61
2021/12/19 04:30:11;;;;;;;64.20;6.13;;;6.60;99.90;;;;;;5048271;28;20045;-61
2021/12/19 04:32:43;;;;;;;30.60;6.63;;;6.50;99.90;;;;;;5046988;28;20118;-61
2021/12/19 04:35:10;;;;;;;54.13;6.55;;;6.50;99.90;;;;;;5048707;28;20049;-61
2021/12/19 04:38:09;;;;;;;39.92;6.53;;;6.50;99.90;;;;;;5046976;28;20049;-61
2021/12/19 04:40:36;;;;;;;29.50;5.80;;;6.50;99.90;;;;;;5040574;28;20041;-62
2021/12/19 04:54:02;;;;;;;48.45;6.28;;;6.50;99.90;;;;;;5047836;28;20049;-61
2021/12/19 05:01:41;;;;;;;70.07;7.15;;;6.50;99.90;;;;;;5046454;28;20081;-61
2021/12/19 05:04:23;;;;;;;96.32;7.20;;;6.50;99.90;;;;;;5047382;28;20083;-61
2021/12/19 05:14:04;;;;;;;112.65;7.20;;;6.50;99.90;;;;;;5048037;28;20049;-61
2021/12/19 05:15:11;;;;;;;90.07;7.30;;;6.50;99.90;;;;;;5050782;28;20080;-61
2021/12/19 05:17:38;;;;;;;62.30;5.78;;;6.60;99.90;;;;;;5031641;28;20107;-61
2021/12/19 05:22:42;;;;;;;63.42;6.38;;;6.60;99.90;;;;;;5049935;28;20083;-61
2021/12/19 05:25:15;;;;;;;94.95;7.18;;;6.60;99.90;;;;;;5050777;28;20141;-62
2021/12/19 05:27:46;;;;;;;70.07;6.68;;;6.60;99.90;;;;;;5051491;28;20049;-61
2021/12/19 05:30:13;;;;;;;75.35;6.97;;;6.60;99.90;;;;;;5050585;28;20076;-61
2021/12/19 05:32:44;;;;;;;80.10;6.63;;;6.60;99.90;;;;;;5050766;28;20080;-61
2021/12/19 05:35:13;;;;;;;86.85;6.53;;;6.60;99.90;;;;;;5050806;28;20399;-61
2021/12/19 05:45:56;;;;;;;102.18;7.20;;;6.50;99.90;;;;;;5050207;28;20049;-61
2021/12/19 05:48:23;;;;;;;95.80;6.22;;;6.50;99.90;;;;;;5050952;28;20496;-61
2021/12/19 05:50:50;;;;;;;101.10;6.65;;;6.40;99.90;;;;;;5050225;28;20170;-61
2021/12/19 05:53:16;;;;;;;99.93;6.10;;;6.30;99.90;;;;;;5049047;28;20087;-61
2021/12/19 05:55:43;;;;;;;93.10;6.18;;;6.20;99.90;;;;;;5050201;28;20091;-61
2021/12/19 05:58:10;;;;;;;140.48;7.30;;;6.30;99.90;;;;;;5049049;28;20076;-61
2021/12/19 06:00:37;;;;;;;127.38;6.68;;;6.30;99.90;;;;;;5049941;28;20041;-61
2021/12/19 06:03:04;;;;;;;95.38;5.65;;;6.20;99.90;;;;;;5049192;28;20049;-61
2021/12/19 06:05:31;;;;;;;185.15;9.18;;;6.20;99.90;;;;;;5050224;28;20045;-61
2021/12/19 06:07:58;;;;;;;142.82;7.18;;;6.10;99.90;;;;;;5049970;28;20049;-59
2021/12/19 06:10:28;;;;;;;96.43;6.45;;;6.00;99.90;;;;;;5049065;28;20055;-59
2021/12/19 06:12:57;;;;;;;23.92;4.43;;;6.00;99.90;;;;;;5050130;28;20122;-59
2021/12/19 06:15:24;;;;;;;117.00;8.18;;;6.00;99.90;;;;;;5049769;28;20492;-61
2021/12/19 06:17:52;;;;;;;111.35;7.65;;;6.00;99.90;;;;;;5050198;28;20424;-60
2021/12/19 06:20:21;;;;;;;89.55;6.93;;;6.00;99.90;;;;;;5048656;28;20041;-60
2021/12/19 06:22:47;;;;;;;74.93;5.60;;;5.90;99.90;;;;;;5048200;28;20044;-60
2021/12/19 06:25:14;;;;;;;57.35;5.20;;;5.90;99.90;;;;;;5048959;28;20420;-61
2021/12/19 06:27:41;;;;;;;69.07;4.93;;;5.90;99.90;;;;;;5049614;28;20053;-60
2021/12/19 06:30:08;;;;;;;52.13;4.30;;;5.80;99.90;;;;;;5049703;28;20080;-60
2021/12/19 06:32:35;;;;;;;38.38;4.68;;;5.70;99.90;;;;;;5049473;28;20045;-59
2021/12/19 06:35:07;;;;;;;53.80;5.05;;;5.70;99.90;;;;;;5049532;28;20045;-61
2021/12/19 06:37:38;;;;;;;30.58;3.83;;;5.70;99.90;;;;;;5048528;28;20084;-59
2021/12/19 06:40:06;;;;;;;67.38;5.47;;;5.80;99.90;;;;;;5032510;28;20048;-60
2021/12/19 06:42:33;;;;;;;65.03;4.57;;;5.80;99.90;;;;;;5048137;28;20588;-60
2021/12/19 06:45:00;;;;;;;43.05;4.18;;;5.70;99.90;;;;;;5049581;28;20110;-60
2021/12/19 06:47:27;;;;;;;83.75;5.95;;;5.70;99.90;;;;;;5049010;28;20045;-59
2021/12/19 06:49:53;;;;;;;67.93;6.05;;;5.80;99.90;;;;;;5049369;28;20056;-60
2021/12/19 06:52:20;;;;;;;116.78;6.47;;;5.80;99.90;;;;;;5049692;28;20080;-60
2021/12/19 06:54:47;;;;;;;85.15;5.72;;;5.70;99.90;;;;;;5049214;28;20528;-59
2021/12/19 06:57:14;;;;;;;71.22;5.60;;;5.70;99.90;;;;;;5049222;28;20052;-60
2021/12/19 06:59:40;;;;;;;33.10;4.88;;;5.70;99.90;;;;;;5048580;28;20041;-60
2021/12/19 07:02:13;;;;;;;62.38;4.80;;;5.80;99.90;;;;;;5049147;28;20098;-60
2021/12/19 07:04:41;;;;;;;93.95;7.07;;;5.80;99.90;;;;;;5049519;28;20045;-60
2021/12/19 07:07:08;;;;;;;91.28;5.85;;;5.80;99.90;;;;;;5049061;28;20092;-60
2021/12/19 07:09:34;;;;;;;67.78;6.75;;;5.90;99.90;;;;;;5049009;28;20095;-60
2021/12/19 07:12:02;;;;;;;50.97;4.43;;;5.80;99.90;;;;;;5048885;28;20132;-60
2021/12/19 07:14:29;;;;;;;89.88;5.53;;;5.80;99.90;;;;;;5048761;28;20057;-60
2021/12/19 07:16:56;;;;;;;54.22;4.85;;;5.80;99.90;;;;;;5048939;28;20084;-60
2021/12/19 07:19:22;;;;;;;75.88;4.40;;;5.80;99.90;;;;;;5048348;28;20558;-60
2021/12/19 07:21:49;;;;;;;89.30;6.15;;;5.80;99.90;;;;;;5048776;28;20573;-62
2021/12/19 07:24:16;;;;;;;107.90;6.13;;;5.70;99.90;;;;;;5048473;28;20049;-61
2021/12/19 07:26:43;;;;;;;136.25;6.25;;;5.70;99.90;;;;;;5047608;28;20045;-61
2021/12/19 07:29:10;;;;;;;146.30;7.40;;;5.70;99.90;;;;;;5048215;28;20045;-60
2021/12/19 07:31:38;;;;;;;46.30;4.35;;;5.70;99.90;;;;;;5048157;28;20049;-60
2021/12/19 07:34:06;;;;;;;94.45;5.10;;;5.70;99.90;;;;;;5046870;28;20570;-62
2021/12/19 07:36:40;;;;;;;55.53;3.95;;;5.70;99.90;;;;;;5048837;28;20175;-61
2021/12/19 07:39:11;;;;;;;61.35;4.82;;;5.70;99.90;;;;;;5048420;28;20044;-61
2021/12/19 07:41:38;;;;;;;83.05;5.55;;;5.80;99.90;;;;;;5048725;28;20049;-61
2021/12/19 07:44:07;;;;;;;99.75;6.18;;;5.80;99.90;;;;;;5048409;28;20049;-61
2021/12/19 07:46:34;;;;;;;113.60;5.88;;;5.80;99.90;;;;;;5048547;28;20079;-62
2021/12/19 07:49:00;;;;;;;51.95;5.85;;;5.80;99.90;;;;;;5048414;28;20045;-63
2021/12/19 07:51:27;;;;;;;35.97;4.15;;;5.70;99.90;;;;;;5048778;28;20056;-61
2021/12/19 07:53:54;;;;;;;74.47;5.07;;;5.70;99.90;;;;;;5048224;28;20048;-62
2021/12/19 07:56:22;;;;;;;71.30;3.85;;;5.50;99.90;;;;;;5046917;28;20048;-61
2021/12/19 07:58:48;;;;;;;67.10;4.75;;;5.40;99.90;;;;;;5048159;28;20084;-61
2021/12/19 08:01:16;;;;;;;69.18;4.18;;;5.40;99.90;;;;;;5048342;28;20040;-61
2021/12/19 08:03:42;;;;;;;44.67;2.85;;;5.30;99.90;;;;;;5048550;28;20065;-62
2021/12/19 08:06:09;;;;;;;23.67;3.58;;;5.30;99.90;;;;;;5046926;28;20049;-60
2021/12/19 08:08:36;;;;;;;14.20;2.40;;;5.20;99.90;;;;;;5048540;28;20061;-65
2021/12/19 08:11:51;;;;;;;24.13;2.58;;;5.30;99.90;;;;;;5048563;28;20186;-61
2021/12/19 08:13:50;;;;;;;32.95;3.22;;;5.30;99.90;;;;;;5047204;28;20152;-61
2021/12/19 08:16:17;;;;;;;31.33;3.53;;;5.30;99.90;;;;;;5047452;28;20045;-61
2021/12/19 08:18:52;;;;;;;39.35;3.30;;;5.30;99.90;;;;;;5048708;28;20049;-60
2021/12/19 08:21:23;;;;;;;24.80;3.40;;;5.30;99.90;;;;;;5047654;28;20053;-61
2021/12/19 08:23:50;;;;;;;16.38;2.10;;;5.30;99.90;;;;;;5045790;28;20076;-61
2021/12/19 08:26:17;;;;;;;64.30;3.45;;;5.50;99.90;;;;;;5047649;28;20087;-62
2021/12/19 08:28:43;;;;;;;40.95;3.03;;;5.40;99.90;;;;;;5047527;28;20037;-60
2021/12/19 08:31:10;;;;;;;56.55;3.38;;;5.40;99.90;;;;;;5047502;28;20115;-61
2021/12/19 08:33:37;;;;;;;27.65;2.15;;;5.40;99.90;;;;;;5047913;28;20077;-61
2021/12/19 08:36:05;;;;;;;12.00;2.40;;;5.50;99.90;;;;;;5046706;28;20048;-60
2021/12/19 08:38:31;;;;;;;42.83;2.85;;;5.50;99.90;;;;;;5047497;28;20053;-60
2021/12/19 08:40:59;;;;;;;43.97;2.95;;;5.50;99.90;;;;;;5048035;28;20107;-60
2021/12/19 08:43:25;;;;;;;32.75;2.85;;;5.50;99.90;;;;;;5049539;28;20053;-60
2021/12/19 08:45:52;;;;;;;54.83;3.38;;;5.50;99.90;;;;;;5050296;28;20068;-60
2021/12/19 08:48:20;;;;;;;21.67;2.80;;;5.40;99.90;;;;;;5051928;28;20080;-60
2021/12/19 08:50:47;;;;;;;28.58;2.47;;;5.50;99.90;;;;;;5051737;28;20052;-60
2021/12/19 08:53:13;;;;;;;32.03;2.92;;;5.70;99.90;;;;;;5052023;28;20499;-60
2021/12/19 08:55:40;;;;;;;32.83;2.38;;;5.60;99.90;;;;;;5050375;28;20049;-60
2021/12/19 08:58:07;;;;;;;19.55;2.42;;;5.60;99.90;;;;;;5051284;28;20535;-60
2021/12/19 09:00:34;;;;;;;34.25;3.00;;;5.60;99.90;;;;;;5050283;28;20045;-60
2021/12/19 09:03:01;;;;;;;44.85;2.97;;;5.60;99.90;;;;;;4699301;28;10000110;-60
2021/12/19 09:05:28;;;;;;;43.17;2.85;;;5.50;99.90;;;;;;5047897;28;20139;-60
2021/12/19 09:07:55;;;;;;;62.03;3.38;;;5.50;99.90;;;;;;5047453;28;20053;-60
2021/12/19 09:10:22;;;;;;;69.00;3.28;;;5.60;99.90;;;;;;5046908;28;20071;-60
2021/12/19 09:12:49;;;;;;;59.33;3.47;;;5.60;99.90;;;;;;5044434;28;20135;-60
2021/12/19 09:15:16;;;;;;;37.67;3.00;;;5.70;99.90;;;;;;5047688;28;20057;-60
2021/12/19 09:17:43;;;;;;;36.25;3.17;;;5.70;99.90;;;;;;5047215;28;20183;-60
2021/12/19 09:20:10;;;;;;;46.15;3.50;;;5.70;99.90;;;;;;5047658;28;20460;-60
2021/12/19 09:22:37;;;;;;;60.38;3.83;;;5.70;99.90;;;;;;5047148;28;20119;-60
2021/12/19 09:25:15;;;;;;;65.03;4.05;;;5.80;99.90;;;;;;5046243;28;20044;-60
2021/12/19 09:27:42;;;;;;;78.53;4.07;;;5.90;99.90;;;;;;5046931;28;20099;-60
2021/12/19 09:30:09;;;;;;;38.83;3.88;;;5.90;99.90;;;;;;5047252;28;20049;-60
2021/12/19 09:32:36;;;;;;;87.60;5.25;;;5.90;99.90;;;;;;5047131;28;20049;-61
2021/12/19 09:35:03;;;;;;;16.92;3.85;;;5.90;99.90;;;;;;5047691;28;20080;-60
2021/12/19 09:37:35;;;;;;;67.57;6.13;;;5.90;99.90;;;;;;5047357;28;20088;-60
2021/12/19 09:40:04;;;;;;;69.68;9.38;;;5.90;99.90;;;;;;5037139;28;20801;-61
2021/12/19 09:42:34;;;;;;;58.95;5.28;;;6.00;99.90;;;;;;5047740;28;20075;-60
2021/12/19 09:45:02;;;;;;;101.35;5.82;;;6.00;99.90;;;;;;5046234;28;20139;-60
2021/12/19 09:47:29;;;;;;;92.88;6.13;;;5.90;99.90;;;;;;5047541;28;20080;-60
2021/12/19 09:49:59;;;;;;;72.75;6.22;;;5.90;99.90;;;;;;5043356;28;20049;-60
2021/12/19 09:52:28;;;;;;;45.15;5.82;;;5.90;99.90;;;;;;5046357;28;20134;-59
2021/12/19 09:54:54;;;;;;;41.15;4.20;;;5.90;99.90;;;;;;5046897;28;20084;-62
2021/12/19 09:57:22;;;;;;;16.67;4.47;;;5.90;99.90;;;;;;5046746;28;20041;-60
2021/12/19 09:59:49;;;;;;;33.63;3.92;;;5.90;99.90;;;;;;5044999;28;20072;-61
2021/12/19 10:02:16;;;;;;;39.35;3.25;;;5.90;99.90;;;;;;5047363;28;20083;-60
2021/12/19 10:04:44;;;;;;;56.08;4.78;;;5.90;99.90;;;;;;5045036;28;20086;-61
2021/12/19 10:07:28;;;;;;;85.53;4.65;;;6.00;99.90;;;;;;5046002;28;20049;-61
2021/12/19 10:10:03;;;;;;;15.20;3.97;;;6.00;99.90;;;;;;5040989;28;20543;-60
2021/12/19 10:15:09;;;;;;;27.52;3.00;;;6.00;99.90;;;;;;5045627;28;20118;-59
2021/12/19 10:17:37;;;;;;;35.70;2.97;;;6.00;99.90;;;;;;5046195;28;20523;-60
2021/12/19 10:20:09;;;;;;;40.95;4.13;;;6.00;99.90;;;;;;5046306;28;20072;-60
2021/12/19 10:22:39;;;;;;;29.15;3.75;;;6.10;99.90;;;;;;5044760;28;20092;-59
2021/12/19 10:25:21;;;;;;;66.05;4.25;;;6.10;99.90;;;;;;5028533;28;20063;-60
2021/12/19 10:27:55;;;;;;;79.07;4.55;;;6.10;99.90;;;;;;5044854;28;20630;-60
2021/12/19 10:30:34;;;;;;;60.78;3.63;;;6.00;99.90;;;;;;5045921;28;20049;-61
2021/12/19 10:33:07;;;;;;;57.70;3.88;;;6.00;99.90;;;;;;5045764;28;20076;-60
2021/12/19 10:35:34;;;;;;;124.28;4.72;;;6.00;99.90;;;;;;5045695;28;20118;-60
2021/12/19 10:38:02;;;;;;;110.35;5.18;;;5.90;99.90;;;;;;5045704;28;20568;-61
2021/12/19 10:40:29;;;;;;;153.63;6.00;;;5.80;99.90;;;;;;5045521;28;20103;-61
2021/12/19 10:43:00;;;;;;;61.03;4.85;;;5.80;99.90;;;;;;5046376;28;20052;-61
2021/12/19 10:45:48;;;;;;;25.52;4.15;;;5.80;99.90;;;;;;5045353;28;20056;-60
2021/12/19 10:48:22;;;;;;;85.25;5.35;;;5.80;99.90;;;;;;5044607;28;20183;-61
2021/12/19 10:50:50;;;;;;;67.00;5.18;;;5.90;99.90;;;;;;5045600;28;20808;-60
2021/12/19 10:53:17;;;;;;;45.42;5.18;;;6.00;99.90;;;;;;5046133;28;20049;-59
2021/12/19 10:55:48;;;;;;;34.53;5.20;;;5.90;99.90;;;;;;5044934;28;20450;-60
2021/12/19 10:58:31;;;;;;;23.30;5.75;;;5.90;99.90;;;;;;5044170;28;20373;-61
2021/12/19 11:01:25;;;;;;;67.15;6.03;;;5.90;99.90;;;;;;5044929;28;20087;-59
2021/12/19 11:04:08;;;;;;;87.07;7.50;;;6.00;99.90;;;;;;5045167;28;20943;-61
2021/12/19 11:06:44;;;;;;;52.75;7.07;;;6.00;99.90;;;;;;5043437;28;20048;-59
2021/12/19 11:09:16;;;;;;;40.42;9.27;;;6.10;99.90;;;;;;5045660;28;20056;-59
2021/12/19 11:12:05;;;;;;;58.42;6.38;;;6.10;99.90;;;;;;5044529;28;20045;-59
2021/12/19 11:14:43;;;;;;;61.38;5.43;;;6.20;99.90;;;;;;5045193;28;20045;-60
2021/12/19 11:17:11;;;;;;;46.22;5.97;;;6.20;99.90;;;;;;5044724;28;20087;-60
2021/12/19 11:19:39;;;;;;;64.85;6.05;;;6.20;99.90;;;;;;5043767;28;20045;-59
2021/12/19 11:22:23;;;;;;;25.85;6.07;;;6.30;99.90;;;;;;5043150;28;20055;-61
2021/12/19 11:24:56;;;;;;;28.75;5.72;;;6.30;99.90;;;;;;5043908;28;20068;-60
2021/12/19 11:27:23;;;;;;;70.25;5.88;;;6.30;99.90;;;;;;5041983;28;20049;-60
2021/12/19 11:29:51;;;;;;;29.30;5.20;;;6.20;99.90;;;;;;5045042;28;20053;-60
2021/12/19 11:32:19;;;;;;;66.03;6.00;;;6.30;99.90;;;;;;5044988;28;20118;-60
2021/12/19 11:34:58;;;;;;;60.95;5.50;;;6.20;99.90;;;;;;5044568;28;20056;-59
2021/12/19 11:37:27;;;;;;;97.80;7.35;;;6.10;99.90;;;;;;5045211;28;20076;-59
2021/12/19 11:39:55;;;;;;;31.85;5.97;;;6.10;99.90;;;;;;5044914;28;20053;-60
2021/12/19 11:42:32;;;;;;;107.22;8.18;;;6.00;99.90;;;;;;5043044;28;20487;-59
2021/12/19 11:45:26;;;;;;;102.80;7.10;;;6.00;99.90;;;;;;5044284;28;20057;-60
2021/12/19 11:48:11;;;;;;;87.80;7.88;;;6.00;99.90;;;;;;5042652;28;20049;-58
2021/12/19 11:50:58;;;;;;;52.00;5.28;;;5.90;99.90;;;;;;5043153;28;20508;-60
2021/12/19 11:53:29;;;;;;;37.25;10.90;;;6.00;99.90;;;;;;5042678;28;20073;-59
2021/12/19 11:56:11;;;;;;;23.77;7.25;;;6.00;99.90;;;;;;5044342;28;20061;-60
2021/12/19 11:58:49;;;;;;;122.20;7.88;;;6.10;99.90;;;;;;5042329;28;20045;-61
2021/12/19 12:01:22;;;;;;;94.35;7.32;;;6.00;99.90;;;;;;5042565;28;20059;-60
2021/12/19 12:04:07;;;;;;;69.53;6.50;;;6.00;99.90;;;;;;5042909;28;20053;-60
2021/12/19 12:06:37;;;;;;;13.25;4.43;;;6.00;99.90;;;;;;5045424;28;20447;-60
2021/12/19 12:09:07;;;;;;;70.50;5.93;;;6.00;99.90;;;;;;5044912;28;20122;-61
2021/12/19 12:11:36;;;;;;;68.93;7.55;;;5.90;99.90;;;;;;5027439;28;20104;-60
2021/12/19 12:14:22;;;;;;;97.30;7.63;;;5.90;99.90;;;;;;5044911;28;20080;-59
2021/12/19 12:16:56;;;;;;;55.58;7.22;;;5.90;99.90;;;;;;5040969;28;20106;-59
2021/12/19 12:20:01;;;;;;;53.55;8.15;;;6.00;99.90;;;;;;5049108;28;20110;-59
2021/12/19 12:22:39;;;;;;;64.75;7.18;;;6.10;99.90;;;;;;5043018;28;20068;-59
2021/12/19 12:25:18;;;;;;;33.63;6.22;;;6.10;99.90;;;;;;5043636;28;20045;-59
2021/12/19 12:27:53;;;;;;;33.35;7.32;;;6.20;99.90;;;;;;5048512;28;20072;-60
2021/12/19 12:30:27;;;;;;;35.10;7.20;;;6.20;99.90;;;;;;5047152;28;20099;-63
2021/12/19 12:32:54;;;;;;;;;;;6.10;99.90;;;;;;5048000;28;20140;-59
2021/12/19 12:35:22;;;;;;;21.73;4.95;;;6.20;99.90;;;;;;5048037;28;20029;-59
2021/12/19 12:37:50;;;;;;;47.45;5.60;;;6.10;99.90;;;;;;5048469;28;20045;-59
2021/12/19 12:40:31;;;;;;;14.48;4.93;;;6.10;99.90;;;;;;5047295;28;20057;-61
2021/12/19 12:43:09;;;;;;;36.05;5.50;;;6.10;99.90;;;;;;5046738;28;20861;-59
2021/12/19 12:45:57;;;;;;;112.57;7.53;;;6.10;99.90;;;;;;5047584;28;20585;-58
2021/12/19 12:48:31;;;;;;;91.35;8.68;;;6.10;99.90;;;;;;5047653;28;20487;-60
2021/12/19 12:50:58;;;;;;;56.72;6.10;;;5.90;99.90;;;;;;5046117;28;20059;-59
2021/12/19 12:53:48;;;;;;;21.23;6.13;;;5.90;99.90;;;;;;5046295;28;20051;-60
2021/12/19 12:56:47;;;;;;;48.50;6.65;;;6.00;99.90;;;;;;5043902;28;20206;-60
2021/12/19 12:59:19;;;;;;;52.20;7.63;;;6.00;99.90;;;;;;5046623;28;20075;-60
2021/12/19 13:01:51;;;;;;;33.25;7.15;;;5.90;99.90;;;;;;5035920;28;20052;-60
2021/12/19 13:04:19;;;;;;;29.13;6.72;;;5.90;99.90;;;;;;5044769;28;20037;-61
2021/12/19 13:06:50;;;;;;;44.85;7.78;;;6.00;99.90;;;;;;5043309;28;20151;-62
2021/12/19 13:09:24;;;;;;;29.73;6.72;;;5.90;99.90;;;;;;5034887;28;20053;-62
2021/12/19 13:11:56;;;;;;;29.48;7.10;;;5.90;99.90;;;;;;5047637;28;20106;-59
2021/12/19 13:14:25;;;;;;;28.48;6.90;;;5.90;99.90;;;;;;5045188;28;20092;-61
2021/12/19 13:16:54;;;;;;;27.27;6.65;;;5.80;99.90;;;;;;5044943;28;20118;-61
2021/12/19 13:19:36;;;;;;;16.48;6.75;;;5.80;99.90;;;;;;5045300;28;20080;-61
2021/12/19 13:22:05;;;;;;;45.78;6.95;;;5.80;99.90;;;;;;5042891;28;20041;-60
2021/12/19 13:24:34;;;;;;;50.38;7.18;;;5.80;99.90;;;;;;5044239;28;20141;-60
2021/12/19 13:27:05;;;;;;;32.35;6.28;;;5.70;99.90;;;;;;5046163;28;20496;-61
2021/12/19 13:29:31;;;;;;;72.15;7.45;;;5.60;99.90;;;;;;5044332;28;20052;-61
2021/12/19 13:32:31;;;;;;;26.45;5.25;;;5.60;99.90;;;;;;5046769;28;20049;-60
2021/12/19 13:34:58;;;;;;;55.47;5.97;;;5.50;99.90;;;;;;5025996;28;20057;-60
2021/12/19 13:37:25;;;;;;;44.65;6.57;;;5.60;99.90;;;;;;5027646;28;20500;-60
2021/12/19 13:40:03;;;;;;;91.07;8.38;;;5.50;99.90;;;;;;5047180;28;20081;-60
2021/12/19 13:42:37;;;;;;;196.23;9.98;;;5.50;99.90;;;;;;5046358;28;20057;-61
2021/12/19 13:45:26;;;;;;;66.22;7.85;;;5.50;99.90;;;;;;5046074;28;20068;-60
2021/12/19 13:47:53;;;;;;;87.55;7.13;;;5.40;99.90;;;;;;5043768;28;20487;-61
2021/12/19 13:50:20;;;;;;;82.65;7.05;;;5.40;99.90;;;;;;5046009;28;20053;-60
2021/12/19 13:52:47;;;;;;;36.75;6.47;;;5.50;99.90;;;;;;5045830;28;20053;-61
2021/12/19 13:55:14;;;;;;;70.93;7.53;;;5.50;99.90;;;;;;5045622;28;20099;-60
2021/12/19 13:57:41;;;;;;;78.53;6.93;;;5.50;99.90;;;;;;5047355;28;20045;-58
2021/12/19 14:00:32;;;;;;;45.75;5.80;;;5.50;99.90;;;;;;5040304;28;20076;-59
2021/12/19 14:02:59;;;;;;;32.10;5.55;;;5.60;99.90;;;;;;5044567;28;20139;-60